Time;durP1;ratioP1;P1;durP2;ratioP2;P2;SDS_P1;SDS_P2;PMS_P1;PMS_P2;Temp;Humidity;BMP_temperature;BMP_pressure;BME280_temperature;BME280_humidity;BME280_pressure;Samples;Min_cycle;Max_cycle;Signal;HPM_P1;HPM_P2
2022/10/06 00:00:20;;;;;;;4.07;3.20;;;;;;;11.83;100.00;101401.84;5072328;28;20028;-74
2022/10/06 00:02:46;;;;;;;4.05;2.70;;;;;;;11.82;100.00;101422.25;5072073;28;20039;-75
2022/10/06 00:05:11;;;;;;;4.25;2.85;;;;;;;11.83;100.00;101344.94;5071894;28;20061;-75
2022/10/06 00:07:37;;;;;;;5.57;2.70;;;;;;;12.47;100.00;101356.03;5072135;28;20087;-74
2022/10/06 00:10:04;;;;;;;3.30;2.72;;;;;;;11.97;100.00;101366.00;5072723;28;20031;-75
2022/10/06 00:12:44;;;;;;;4.10;3.08;;;;;;;12.47;100.00;101394.31;5070661;28;20524;-75
2022/10/06 00:15:13;;;;;;;5.38;3.20;;;;;;;12.09;100.00;101411.75;5072251;28;20043;-75
2022/10/06 00:17:39;;;;;;;6.65;3.25;;;;;;;11.78;100.00;101410.41;5070877;28;20085;-74
2022/10/06 00:20:06;;;;;;;7.82;3.45;;;;;;;11.25;100.00;101349.75;5071396;28;20423;-75
2022/10/06 00:22:50;;;;;;;9.60;3.55;;;;;;;11.32;100.00;101390.41;5071811;28;20036;-75
2022/10/06 00:25:19;;;;;;;5.70;3.70;;;;;;;11.17;100.00;101410.88;5070579;28;20135;-74
2022/10/06 00:27:46;;;;;;;6.40;3.38;;;;;;;11.02;100.00;101356.72;5071818;28;20059;-74
2022/10/06 00:30:17;;;;;;;5.03;3.30;;;;;;;11.30;100.00;101402.31;5070999;28;20050;-74
2022/10/06 00:32:50;;;;;;;6.72;2.83;;;;;;;10.96;100.00;101349.97;5070473;28;20025;-75
2022/10/06 00:35:16;;;;;;;6.05;3.35;;;;;;;11.04;100.00;101390.63;5072117;28;20063;-75
2022/10/06 00:37:41;;;;;;;4.35;3.03;;;;;;;11.20;100.00;101399.84;5072182;28;20474;-75
2022/10/06 00:40:08;;;;;;;4.55;2.90;;;;;;;11.14;100.00;101374.44;5087709;28;20032;-74
2022/10/06 00:42:47;;;;;;;5.93;3.10;;;;;;;11.11;100.00;101366.84;5087535;28;20033;-73
2022/10/06 00:45:13;;;;;;;4.53;2.70;;;;;;;10.86;100.00;101406.84;5069935;28;20024;-78
2022/10/06 00:47:38;;;;;;;5.90;3.33;;;;;;;10.51;100.00;101306.19;5071689;28;20037;-73
2022/10/06 00:50:05;;;;;;;3.53;2.80;;;;;;;11.49;100.00;101392.78;5071358;28;20037;-74
2022/10/06 00:52:31;;;;;;;8.57;3.20;;;;;;;11.47;100.00;101393.69;5069426;28;20036;-74
2022/10/06 00:54:57;;;;;;;5.45;2.63;;;;;;;11.29;100.00;101366.66;5071237;28;20398;-75
2022/10/06 00:57:24;;;;;;;4.53;3.00;;;;;;;11.30;100.00;101341.22;5071733;28;20039;-73
2022/10/06 00:59:52;;;;;;;5.13;3.17;;;;;;;11.41;100.00;101396.28;5069903;28;20097;-74
2022/10/06 01:02:27;;;;;;;5.95;3.00;;;;;;;11.40;100.00;101389.50;5071295;28;20088;-74
2022/10/06 01:04:56;;;;;;;3.83;3.20;;;;;;;11.52;100.00;101389.38;5071047;28;20027;-75
2022/10/06 01:07:25;;;;;;;5.03;3.15;;;;;;;10.97;100.00;101325.38;5070805;28;20039;-75
2022/10/06 01:09:51;;;;;;;6.40;3.10;;;;;;;11.07;100.00;101375.34;5071261;28;20032;-74
2022/10/06 01:12:17;;;;;;;7.25;3.17;;;;;;;11.28;100.00;101377.72;5069795;28;20384;-74
2022/10/06 01:14:43;;;;;;;4.47;3.05;;;;;;;11.43;100.00;101381.84;5071536;28;20025;-74
2022/10/06 01:17:15;;;;;;;4.18;3.28;;;;;;;11.35;100.00;101336.91;5071348;28;20029;-73
2022/10/06 01:19:51;;;;;;;7.40;3.38;;;;;;;11.63;100.00;101385.03;5070900;28;20071;-73
2022/10/06 01:22:26;;;;;;;4.65;3.00;;;;;;;11.13;100.00;101388.84;5071204;28;20101;-72
2022/10/06 01:24:51;;;;;;;6.85;3.33;;;;;;;11.70;100.00;101373.97;5070646;28;20105;-73
2022/10/06 01:27:18;;;;;;;3.83;2.80;;;;;;;11.36;100.00;101360.66;5069998;28;20386;-72
2022/10/06 01:29:44;;;;;;;3.85;2.78;;;;;;;11.35;100.00;101371.69;5070729;28;20475;-73
2022/10/06 01:32:09;;;;;;;4.97;2.92;;;;;;;10.78;100.00;101314.47;5070405;28;20033;-73
2022/10/06 01:34:35;;;;;;;4.20;2.45;;;;;;;11.25;100.00;101368.38;5070278;28;20028;-73
2022/10/06 01:37:00;;;;;;;5.03;3.17;;;;;;;11.31;100.00;101304.69;5070727;28;20621;-72
2022/10/06 01:39:26;;;;;;;4.90;2.40;;;;;;;11.51;100.00;101365.59;5070878;28;20111;-73
2022/10/06 01:41:52;;;;;;;3.40;2.55;;;;;;;11.51;100.00;101370.69;5071172;28;20097;-76
2022/10/06 01:44:18;;;;;;;4.57;2.63;;;;;;;11.10;100.00;101306.59;5070585;28;20053;-73
2022/10/06 01:46:43;;;;;;;5.43;2.92;;;;;;;11.14;100.00;101360.00;5070838;28;20079;-73
2022/10/06 01:49:08;;;;;;;6.00;3.05;;;;;;;11.26;100.00;101366.69;5070825;28;20059;-75
2022/10/06 01:51:34;;;;;;;5.90;3.20;;;;;;;10.72;100.00;101354.38;5070846;28;20032;-75
2022/10/06 01:53:59;;;;;;;5.10;2.80;;;;;;;11.32;100.00;101369.19;5070626;28;20418;-73
2022/10/06 01:56:24;;;;;;;4.65;2.88;;;;;;;10.84;100.00;101303.41;5071238;28;20034;-75
2022/10/06 01:58:50;;;;;;;6.00;2.80;;;;;;;10.99;100.00;101303.31;5071499;28;20039;-77
2022/10/06 02:01:16;;;;;;;4.60;3.17;;;;;;;10.78;100.00;101296.69;5071111;28;20040;-75
2022/10/06 02:03:41;;;;;;;5.93;3.05;;;;;;;10.95;100.00;101363.53;5071074;28;20047;-78
2022/10/06 02:06:07;;;;;;;5.78;2.97;;;;;;;10.65;100.00;101365.44;5074316;28;20032;-75
2022/10/06 02:08:33;;;;;;;4.53;3.40;;;;;;;9.68;100.00;101235.47;5074426;28;20486;-77
2022/10/06 02:11:10;;;;;;;5.72;3.83;;;;;;;10.96;100.00;101385.59;5072750;28;20090;-74
2022/10/06 02:13:37;;;;;;;4.95;3.40;;;;;;;10.71;100.00;101322.16;5074264;28;20033;-74
2022/10/06 02:16:05;;;;;;;6.07;3.50;;;;;;;10.51;100.00;101314.69;5065762;28;20597;-74
2022/10/06 02:18:32;;;;;;;6.30;4.00;;;;;;;10.60;100.00;101374.81;5054107;28;20033;-73
2022/10/06 02:20:58;;;;;;;7.22;4.63;;;;;;;10.67;100.00;101389.16;5054556;28;20104;-74
2022/10/06 02:23:24;;;;;;;8.52;5.00;;;;;;;10.21;100.00;101384.31;5053902;28;20044;-74
2022/10/06 02:25:56;;;;;;;6.90;3.80;;;;;;;10.31;100.00;101377.50;5054319;28;20041;-74
2022/10/06 02:28:22;;;;;;;8.38;3.95;;;;;;;9.99;100.00;101384.34;5054473;28;20036;-75
2022/10/06 02:30:54;;;;;;;6.20;3.72;;;;;;;10.14;100.00;101375.00;5054852;28;20063;-75
2022/10/06 02:33:19;;;;;;;5.35;3.40;;;;;;;9.78;100.00;101376.78;5053780;28;20044;-75
2022/10/06 02:35:46;;;;;;;6.72;3.40;;;;;;;9.48;100.00;101330.31;5053794;28;20367;-76
2022/10/06 02:38:11;;;;;;;4.05;3.35;;;;;;;9.72;100.00;101321.78;5054126;28;20056;-75
2022/10/06 02:40:37;;;;;;;5.72;2.90;;;;;;;9.75;100.00;101308.22;5053865;28;20079;-75
2022/10/06 02:43:02;;;;;;;7.20;3.50;;;;;;;9.48;100.00;101357.38;5053797;28;20116;-75
2022/10/06 02:45:29;;;;;;;7.10;3.70;;;;;;;9.93;100.00;101352.19;5052643;28;20025;-75
2022/10/06 02:47:55;;;;;;;7.30;3.40;;;;;;;9.70;100.00;101369.19;5053444;28;20399;-75
2022/10/06 02:50:21;;;;;;;7.05;3.40;;;;;;;9.17;100.00;101310.88;5053219;28;20029;-75
2022/10/06 02:52:46;;;;;;;7.03;3.67;;;;;;;9.83;100.00;101370.84;5053981;28;20545;-75
2022/10/06 02:55:12;;;;;;;4.38;3.53;;;;;;;10.08;100.00;101371.63;5053357;28;20037;-75
2022/10/06 02:57:38;;;;;;;6.47;3.55;;;;;;;9.20;100.00;101307.50;5053674;28;20079;-75
2022/10/06 03:00:07;;;;;;;4.72;3.90;;;;;;;9.07;100.00;101306.66;5068948;28;20029;-76
2022/10/06 03:02:33;;;;;;;5.82;4.18;;;;;;;9.34;100.00;101381.91;5053518;28;20070;-73
2022/10/06 03:04:59;;;;;;;8.88;5.05;;;;;;;9.11;100.00;101297.38;5053178;28;20115;-73
2022/10/06 03:07:24;;;;;;;5.97;4.65;;;;;;;8.93;100.00;101307.50;5053856;28;20029;-74
2022/10/06 03:09:49;;;;;;;6.00;4.35;;;;;;;9.60;100.00;101380.22;5065769;28;20032;-73
2022/10/06 03:12:15;;;;;;;7.45;4.80;;;;;;;9.94;100.00;101364.06;5073163;28;20532;-73
2022/10/06 03:14:40;;;;;;;6.22;4.60;;;;;;;9.52;100.00;101277.84;5071491;28;20036;-72
2022/10/06 03:17:08;;;;;;;7.07;5.10;;;;;;;9.19;100.00;101333.72;5072340;28;20028;-72
2022/10/06 03:19:35;;;;;;;9.60;5.32;;;;;;;8.87;100.00;101287.22;5072167;28;20024;-73
2022/10/06 03:22:01;;;;;;;7.90;5.13;;;;;;;9.36;100.00;101293.94;5071827;28;20123;-74
2022/10/06 03:24:27;;;;;;;8.30;5.22;;;;;;;9.43;100.00;101299.00;5072793;28;20043;-73
2022/10/06 03:26:52;;;;;;;8.75;5.00;;;;;;;9.67;100.00;101363.25;5073074;28;20082;-73
2022/10/06 03:29:18;;;;;;;8.07;4.95;;;;;;;9.57;100.00;101353.13;5072894;28;20502;-73
2022/10/06 03:31:43;;;;;;;14.73;5.55;;;;;;;8.97;100.00;101294.84;5072332;28;20025;-74
2022/10/06 03:34:08;;;;;;;9.50;5.20;;;;;;;9.51;100.00;101359.91;5070901;28;20069;-75
2022/10/06 03:36:35;;;;;;;10.68;5.00;;;;;;;9.42;100.00;101354.84;5072802;28;20086;-77
2022/10/06 03:39:03;;;;;;;11.23;5.03;;;;;;;9.32;100.00;101358.22;5071613;28;20465;-75
2022/10/06 03:41:31;;;;;;;10.05;5.15;;;;;;;9.27;100.00;101368.38;5072873;28;20029;-74
2022/10/06 03:43:58;;;;;;;13.20;5.72;;;;;;;9.20;100.00;101358.22;5072704;28;20041;-75
2022/10/06 03:46:27;;;;;;;8.55;5.10;;;;;;;9.56;100.00;101295.59;5088994;28;20032;-75
2022/10/06 03:48:54;;;;;;;11.18;5.20;;;;;;;9.84;100.00;101328.53;5072459;28;20032;-72
2022/10/06 03:51:28;;;;;;;7.82;5.28;;;;;;;9.94;100.00;101356.44;5072528;28;20060;-74
2022/10/06 03:53:54;;;;;;;9.65;6.00;;;;;;;9.58;100.00;101306.59;5071263;28;20028;-73
2022/10/06 03:56:31;;;;;;;9.43;5.53;;;;;;;9.05;100.00;101289.75;5071215;28;20029;-73
2022/10/06 03:58:59;;;;;;;9.02;5.50;;;;;;;9.27;100.00;101370.91;5072266;28;20065;-73
2022/10/06 04:01:29;;;;;;;9.20;5.82;;;;;;;8.94;100.00;101324.41;5072284;28;20455;-73
2022/10/06 04:03:56;;;;;;;7.72;5.55;;;;;;;9.08;100.00;101290.59;5071911;28;20035;-73
2022/10/06 04:06:23;;;;;;;9.00;5.63;;;;;;;9.22;100.00;101282.97;5070472;28;20024;-74
2022/10/06 04:08:50;;;;;;;7.65;5.45;;;;;;;9.63;100.00;101355.66;5071692;28;20707;-74
2022/10/06 04:11:37;;;;;;;8.95;5.75;;;;;;;9.83;100.00;101353.06;5065105;28;20514;-73
2022/10/06 04:14:08;;;;;;;11.57;6.20;;;;;;;9.60;100.00;101354.81;5051346;28;20039;-74
2022/10/06 04:16:39;;;;;;;9.35;5.90;;;;;;;9.72;100.00;101352.25;5066901;28;20517;-72
2022/10/06 04:19:10;;;;;;;12.32;6.38;;;;;;;9.55;100.00;101348.88;5052162;28;20064;-74
2022/10/06 04:21:37;;;;;;;10.80;6.10;;;;;;;9.40;100.00;101275.31;5061795;28;20060;-74
2022/10/06 04:24:04;;;;;;;22.25;14.32;;;;;;;9.80;100.00;101349.69;5071021;28;20274;-75
2022/10/06 04:26:34;;;;;;;16.95;8.57;;;;;;;9.76;100.00;101359.03;5071864;28;20082;-74
2022/10/06 04:29:00;;;;;;;13.52;7.40;;;;;;;9.98;100.00;101336.94;5071509;28;20079;-73
2022/10/06 04:31:28;;;;;;;20.63;9.15;;;;;;;10.90;100.00;101354.25;5071633;28;20032;-73
2022/10/06 04:33:56;;;;;;;33.03;17.80;;;;;;;9.88;100.00;101359.00;5071956;28;20043;-74
2022/10/06 04:36:24;;;;;;;28.88;13.50;;;;;;;9.40;100.00;101314.25;5070184;28;20142;-73
2022/10/06 04:38:57;;;;;;;16.02;9.20;;;;;;;10.66;100.00;101334.91;5070242;28;20028;-74
2022/10/06 04:41:24;;;;;;;20.08;8.95;;;;;;;9.19;100.00;101235.59;5071430;28;20140;-74
2022/10/06 04:43:51;;;;;;;18.23;8.52;;;;;;;11.13;100.00;101360.03;5068998;28;20419;-74
2022/10/06 04:46:17;;;;;;;21.55;7.70;;;;;;;13.45;100.00;101346.03;5070013;28;20033;-72
2022/10/06 04:48:43;;;;;;;18.02;8.60;;;;;;;10.90;100.00;101333.88;5071675;28;20111;-74
2022/10/06 04:51:14;;;;;;;15.10;8.00;;;;;;;11.21;100.00;101295.44;5071240;28;20175;-74
2022/10/06 04:53:42;;;;;;;18.92;7.75;;;;;;;13.72;100.00;101341.25;5070289;28;20040;-74
2022/10/06 04:56:16;;;;;;;13.18;6.68;;;;;;;15.27;100.00;101346.38;5070889;28;20410;-73
2022/10/06 04:58:47;;;;;;;14.80;7.60;;;;;;;15.41;100.00;101357.13;5069873;28;20051;-74
2022/10/06 05:01:21;;;;;;;15.88;7.53;;;;;;;14.75;100.00;101351.91;5070787;28;20032;-74
2022/10/06 05:03:49;;;;;;;20.38;8.18;;;;;;;15.19;100.00;101350.84;5070659;28;20090;-74
2022/10/06 05:06:16;;;;;;;19.38;8.48;;;;;;;15.17;100.00;101358.53;5071382;28;20522;-74
2022/10/06 05:08:46;;;;;;;19.20;8.60;;;;;;;15.40;100.00;101305.00;5071433;28;20035;-75
2022/10/06 05:11:11;;;;;;;26.30;11.80;;;;;;;15.28;100.00;101301.91;5071448;28;20032;-75
2022/10/06 05:13:37;;;;;;;18.23;8.35;;;;;;;16.01;100.00;101332.41;5070896;28;20033;-75
2022/10/06 05:16:06;;;;;;;20.13;8.63;;;;;;;15.96;98.33;101366.78;5071330;28;20116;-74
2022/10/06 05:18:33;;;;;;;23.33;8.95;;;;;;;16.25;90.41;101318.03;5071354;28;20024;-75
2022/10/06 05:21:07;;;;;;;19.20;8.68;;;;;;;15.55;96.46;101330.25;5071423;28;20498;-74
2022/10/06 05:23:36;;;;;;;16.27;6.80;;;;;;;16.06;97.30;101333.13;5071113;28;20082;-74
2022/10/06 05:26:03;;;;;;;11.90;4.43;;;;;;;15.96;100.00;101385.59;5071422;28;20546;-74
2022/10/06 05:28:29;;;;;;;12.25;4.30;;;;;;;15.27;100.00;101377.94;5070886;28;20079;-74
2022/10/06 05:30:55;;;;;;;15.65;4.78;;;;;;;14.73;100.00;101412.53;5070852;28;20033;-76
2022/10/06 05:33:21;;;;;;;8.50;3.90;;;;;;;13.05;100.00;101320.34;5069935;28;20036;-76
2022/10/06 05:35:57;;;;;;;10.65;4.10;;;;;;;12.00;100.00;101374.47;5069895;28;20119;-76
2022/10/06 05:38:23;;;;;;;8.45;4.50;;;;;;;11.99;100.00;101323.50;5071529;28;20040;-76
2022/10/06 05:40:49;;;;;;;8.43;4.20;;;;;;;11.64;100.00;101264.47;5074581;28;20036;-76
2022/10/06 05:43:16;;;;;;;7.95;3.70;;;;;;;12.51;100.00;101304.13;5074804;28;20032;-76
2022/10/06 05:45:56;;;;;;;9.10;3.72;;;;;;;13.11;100.00;101357.69;5074889;28;20032;-75
2022/10/06 05:48:21;;;;;;;7.65;3.50;;;;;;;13.20;100.00;101383.06;5074119;28;20051;-75
2022/10/06 05:50:48;;;;;;;8.32;3.70;;;;;;;13.49;100.00;101370.66;5074176;28;20024;-78
2022/10/06 05:53:14;;;;;;;11.18;4.07;;;;;;;13.40;100.00;101353.78;5073782;28;20021;-75
2022/10/06 05:55:39;;;;;;;6.70;3.63;;;;;;;13.86;100.00;101379.34;5073838;28;20035;-78
2022/10/06 05:58:05;;;;;;;10.00;4.28;;;;;;;13.80;100.00;101375.19;5074639;28;20028;-75
2022/10/06 06:00:30;;;;;;;8.02;4.20;;;;;;;13.80;100.00;101382.88;5075139;28;20112;-79
2022/10/06 06:02:56;;;;;;;6.30;3.53;;;;;;;13.62;100.00;101378.09;5075243;28;20048;-77
2022/10/06 06:05:21;;;;;;;6.82;4.30;;;;;;;14.13;100.00;101376.25;5073450;28;20414;-75
2022/10/06 06:07:46;;;;;;;8.32;4.35;;;;;;;13.95;100.00;101335.69;5074456;28;20040;-74
2022/10/06 06:10:12;;;;;;;7.82;4.47;;;;;;;13.84;100.00;101387.00;5073359;28;20512;-74
2022/10/06 06:12:37;;;;;;;8.65;4.95;;;;;;;14.42;100.00;101355.22;5073839;28;20029;-73
2022/10/06 06:17:47;;;;;;;8.48;5.32;;;;;;;14.70;100.00;101385.28;5074725;28;20040;-75
2022/10/06 06:20:13;;;;;;;11.02;5.40;;;;;;;14.62;100.00;101307.81;5073115;28;20482;-75
2022/10/06 06:22:38;;;;;;;8.63;5.03;;;;;;;15.24;100.00;101375.47;5074377;28;20471;-75
2022/10/06 06:25:04;;;;;;;7.63;5.05;;;;;;;15.53;100.00;101380.72;5074045;28;20045;-75
2022/10/06 06:27:29;;;;;;;8.10;5.10;;;;;;;16.07;100.00;101382.69;5074181;28;20564;-75
2022/10/06 06:29:56;;;;;;;6.90;4.95;;;;;;;15.53;100.00;101326.91;5074166;28;20218;-75
2022/10/06 06:32:21;;;;;;;8.95;4.90;;;;;;;15.56;100.00;101372.97;5073042;28;20517;-75
2022/10/06 06:34:47;;;;;;;9.27;4.97;;;;;;;15.42;100.00;101310.97;5074153;28;20036;-74
2022/10/06 06:37:12;;;;;;;7.40;4.13;;;;;;;15.57;100.00;101336.19;5073763;28;20108;-75
2022/10/06 06:39:37;;;;;;;6.88;4.03;;;;;;;15.74;100.00;101358.81;5073736;28;20108;-75
2022/10/06 06:42:04;;;;;;;6.13;3.70;;;;;;;16.37;100.00;101372.41;5074056;28;20089;-75
2022/10/06 06:44:29;;;;;;;7.07;4.22;;;;;;;16.73;100.00;101370.50;5072875;28;20115;-75
2022/10/06 06:46:55;;;;;;;7.22;3.92;;;;;;;17.01;100.00;101368.75;5074139;28;20071;-75
2022/10/06 06:49:21;;;;;;;9.20;4.20;;;;;;;16.51;100.00;101332.66;5072850;28;20032;-75
2022/10/06 06:51:50;;;;;;;8.07;3.85;;;;;;;16.60;100.00;101373.50;5072569;28;20039;-75
2022/10/06 06:54:17;;;;;;;6.85;3.13;;;;;;;16.64;100.00;101323.72;5071748;28;20119;-75
2022/10/06 06:56:44;;;;;;;7.82;3.30;;;;;;;17.19;100.00;101375.03;5073744;28;20120;-75
2022/10/06 06:59:11;;;;;;;8.38;4.50;;;;;;;17.09;100.00;101335.09;5072187;28;20490;-75
2022/10/06 07:01:46;;;;;;;5.28;3.28;;;;;;;16.38;100.00;101392.06;5073376;28;20077;-76
2022/10/06 07:04:13;;;;;;;5.85;3.10;;;;;;;17.56;100.00;101366.94;5073641;28;20029;-74
2022/10/06 07:06:40;;;;;;;8.07;3.20;;;;;;;16.80;100.00;101379.69;5073158;28;20483;-75
2022/10/06 07:09:06;;;;;;;4.45;2.90;;;;;;;16.33;100.00;101349.44;5073640;28;20035;-74
2022/10/06 07:11:34;;;;;;;5.93;3.17;;;;;;;17.13;100.00;101322.06;5073383;28;20027;-74
2022/10/06 07:14:03;;;;;;;4.45;2.80;;;;;;;17.84;100.00;101372.81;5071875;28;20166;-75
2022/10/06 07:25:07;;;;;;;5.57;4.78;;;;;;;18.34;100.00;101345.22;5072937;28;20059;-76
2022/10/06 07:27:41;;;;;;;5.10;4.10;;;;;;;18.69;94.17;101370.50;5073165;28;20033;-76
2022/10/06 07:30:13;;;;;;;6.30;3.88;;;;;;;17.67;97.63;101360.53;5073317;28;20029;-75
2022/10/06 07:32:39;;;;;;;6.75;3.90;;;;;;;17.98;100.00;101352.56;5072884;28;20048;-76
2022/10/06 07:35:05;;;;;;;7.93;4.53;;;;;;;17.51;100.00;101345.69;5071660;28;20479;-75
2022/10/06 07:37:33;;;;;;;7.30;4.40;;;;;;;18.20;99.51;101359.44;5071335;28;20028;-75
2022/10/06 07:39:59;;;;;;;6.07;3.90;;;;;;;18.58;98.75;101303.91;5072200;28;20028;-75
2022/10/06 07:42:24;;;;;;;8.43;3.42;;;;;;;17.76;100.00;101361.94;5073018;28;20044;-76
2022/10/06 07:47:36;;;;;;;4.22;2.75;;;;;;;17.86;100.00;101306.69;5072615;28;20043;-74
2022/10/06 07:50:04;;;;;;;5.78;3.10;;;;;;;19.24;95.76;101362.22;5072501;28;20083;-75
2022/10/06 07:52:29;;;;;;;4.28;2.80;;;;;;;19.10;91.62;101304.38;5072198;28;20052;-75
2022/10/06 07:54:57;;;;;;;5.65;3.00;;;;;;;18.73;92.77;101308.47;5072135;28;20521;-76
2022/10/06 07:57:25;;;;;;;5.18;2.80;;;;;;;19.14;90.11;101301.59;5071468;28;20486;-75
2022/10/06 07:59:50;;;;;;;3.50;2.78;;;;;;;19.97;85.44;101354.75;5072575;28;20463;-74
2022/10/06 08:02:18;;;;;;;6.55;2.60;;;;;;;19.75;80.38;101328.22;5070363;28;20035;-74
2022/10/06 08:04:44;;;;;;;4.85;2.42;;;;;;;20.02;82.01;101323.56;5071971;28;20032;-74
2022/10/06 08:07:11;;;;;;;5.25;3.33;;;;;;;18.68;88.30;101306.97;5072145;28;20043;-73
2022/10/06 08:09:37;;;;;;;3.80;2.80;;;;;;;20.04;84.32;101345.84;5072385;28;20096;-74
2022/10/06 08:12:31;;;;;;;4.75;2.72;;;;;;;20.24;80.36;101345.81;5072031;28;20524;-75
2022/10/06 08:14:48;;;;;;;4.47;2.72;;;;;;;19.94;79.94;101348.91;5072142;28;20493;-75
2022/10/06 08:17:14;;;;;;;4.90;2.80;;;;;;;19.48;77.59;101298.47;5071743;28;20024;-77
2022/10/06 08:19:39;;;;;;;6.43;2.85;;;;;;;20.44;76.01;101335.38;5070452;28;20035;-75
2022/10/06 08:22:05;;;;;;;9.43;3.50;;;;;;;20.59;76.57;101326.91;5071587;28;20039;-75
2022/10/06 08:24:30;;;;;;;4.90;2.80;;;;;;;20.66;71.77;101338.63;5070528;28;20044;-75
2022/10/06 08:26:56;;;;;;;4.95;2.67;;;;;;;19.58;74.00;101294.56;5071626;28;20043;-75
2022/10/06 08:29:21;;;;;;;6.60;2.80;;;;;;;20.10;73.43;101283.59;5071579;28;20433;-75
2022/10/06 08:31:47;;;;;;;9.02;3.20;;;;;;;20.33;70.74;101301.47;5071901;28;20032;-75
2022/10/06 08:34:12;;;;;;;7.07;4.90;;;;;;;20.30;71.20;101268.00;5071765;28;20033;-75
2022/10/06 08:36:37;;;;;;;4.43;2.47;;;;;;;19.88;71.14;101270.00;5071582;28;20082;-75
2022/10/06 08:39:05;;;;;;;2.53;1.98;;;;;;;21.19;63.21;101309.34;5070708;28;20036;-75
2022/10/06 08:41:31;;;;;;;4.15;1.90;;;;;;;21.07;63.12;101322.88;5071660;28;20024;-75
2022/10/06 08:44:05;;;;;;;2.10;1.70;;;;;;;20.58;61.55;101303.75;5071479;28;20029;-75
2022/10/06 08:46:38;;;;;;;2.83;1.70;;;;;;;20.81;62.29;101272.44;5070769;28;20028;-76
2022/10/06 08:49:05;;;;;;;4.18;2.15;;;;;;;21.49;60.26;101312.97;5071615;28;20497;-76
2022/10/06 08:51:49;;;;;;;2.75;1.77;;;;;;;21.09;60.66;101308.97;5070275;28;20052;-75
2022/10/06 08:54:43;;;;;;;4.78;2.10;;;;;;;20.97;59.32;101308.69;5071220;28;20085;-75
2022/10/06 08:57:20;;;;;;;3.80;2.00;;;;;;;21.01;58.77;101269.72;5068423;28;20040;-76
2022/10/06 08:59:48;;;;;;;6.30;2.15;;;;;;;21.16;59.08;101244.81;5070260;28;20032;-75
2022/10/06 09:02:33;;;;;;;3.00;1.80;;;;;;;21.41;58.38;101297.00;5071421;28;20542;-75
2022/10/06 09:05:03;;;;;;;5.90;2.40;;;;;;;21.66;56.05;101242.16;5071427;28;20067;-75
2022/10/06 09:07:41;;;;;;;3.85;2.00;;;;;;;21.74;53.69;101299.56;5071071;28;20024;-75
2022/10/06 09:10:21;;;;;;;3.85;2.22;;;;;;;21.10;54.86;101304.63;5071104;28;20028;-75
2022/10/06 09:13:10;;;;;;;4.20;1.75;;;;;;;20.57;55.61;101299.47;5071625;28;20032;-75
2022/10/06 09:15:45;;;;;;;4.57;1.63;;;;;;;21.58;53.73;101287.44;5074113;28;20111;-75
2022/10/06 09:18:35;;;;;;;6.03;2.20;;;;;;;21.75;52.61;101281.34;5075609;28;20039;-75
2022/10/06 09:21:03;;;;;;;2.28;1.70;;;;;;;21.98;52.07;101231.78;5075878;28;20041;-76
2022/10/06 09:23:49;;;;;;;5.53;2.17;;;;;;;22.18;51.25;101235.84;5074771;28;20032;-76
2022/10/06 09:26:21;;;;;;;4.50;1.85;;;;;;;21.60;52.14;101287.34;5073755;28;20047;-74
2022/10/06 09:28:48;;;;;;;4.40;1.80;;;;;;;21.81;50.46;101282.84;5074924;28;20032;-75
2022/10/06 09:31:26;;;;;;;3.80;1.70;;;;;;;21.75;49.70;101232.16;5075127;28;20545;-74
2022/10/06 09:33:58;;;;;;;3.55;1.88;;;;;;;22.81;51.12;101262.50;5075035;28;20036;-73
2022/10/06 09:36:24;;;;;;;3.95;2.10;;;;;;;21.58;51.28;101240.00;5071890;28;20463;-73
2022/10/06 09:38:54;;;;;;;3.92;2.58;;;;;;;21.82;51.29;101215.41;5070851;28;20435;-73
2022/10/06 09:41:38;;;;;;;6.43;2.30;;;;;;;22.09;53.09;101267.44;5074662;28;20493;-74
2022/10/06 09:44:20;;;;;;;3.38;1.73;;;;;;;22.35;51.89;101262.50;5073030;28;20285;-76
2022/10/06 09:46:46;;;;;;;7.55;2.50;;;;;;;22.12;52.29;101187.81;5055492;28;20033;-75
2022/10/06 09:49:23;;;;;;;6.13;1.92;;;;;;;23.52;50.43;101250.44;5069922;28;20036;-75
2022/10/06 09:52:15;;;;;;;1.98;1.58;;;;;;;22.65;50.01;101256.53;5093121;28;20493;-76
2022/10/06 09:54:43;;;;;;;4.28;1.80;;;;;;;22.69;51.53;101245.06;5085246;28;20044;-78
2022/10/06 09:57:14;;;;;;;1.85;1.33;;;;;;;22.77;50.35;101258.41;5094104;28;20031;-75
2022/10/06 09:59:42;;;;;;;3.63;1.25;;;;;;;22.71;49.49;101249.22;5095271;28;20524;-75
2022/10/06 10:02:35;;;;;;;5.38;1.60;;;;;;;23.24;49.06;101257.28;5095216;28;20106;-76
2022/10/06 10:05:03;;;;;;;6.85;2.70;;;;;;;22.50;48.76;101232.28;5094856;28;20039;-76
2022/10/06 10:07:29;;;;;;;3.42;2.00;;;;;;;22.13;48.29;101248.22;5094728;28;20076;-76
2022/10/06 10:10:19;;;;;;;2.85;1.75;;;;;;;22.63;48.28;101248.00;5094659;28;20028;-75
2022/10/06 10:12:55;;;;;;;1.95;1.50;;;;;;;22.52;49.01;101224.41;5094200;28;20097;-76
2022/10/06 10:15:20;;;;;;;3.13;1.55;;;;;;;23.16;48.62;101245.69;5094773;28;20486;-76
2022/10/06 10:17:56;;;;;;;3.08;1.38;;;;;;;22.57;47.60;101246.59;5094766;28;20106;-75
2022/10/06 10:20:35;;;;;;;5.47;1.98;;;;;;;22.88;46.96;101227.47;5094756;28;20020;-75
2022/10/06 10:23:06;;;;;;;2.72;1.55;;;;;;;23.02;46.46;101217.13;5093021;28;20031;-75
2022/10/06 10:26:16;;;;;;;10.80;1.80;;;;;;;22.75;46.39;101226.53;5094220;28;20044;-75
2022/10/06 10:29:03;;;;;;;1.98;1.50;;;;;;;23.21;44.33;101228.91;5012609;28;20038;-75
2022/10/06 10:31:32;;;;;;;2.05;1.55;;;;;;;23.39;46.20;101224.41;5089056;28;20047;-75
2022/10/06 10:34:16;;;;;;;4.82;1.50;;;;;;;23.42;45.76;101218.19;5093417;28;20032;-76
2022/10/06 10:37:07;;;;;;;3.05;1.30;;;;;;;23.12;44.58;101228.63;5094376;28;20020;-75
2022/10/06 10:39:41;;;;;;;4.53;1.70;;;;;;;23.47;45.02;101196.22;5093886;28;20048;-76
2022/10/06 10:42:36;;;;;;;2.70;1.70;;;;;;;23.69;45.75;101196.53;5094128;28;20467;-73
2022/10/06 10:45:10;;;;;;;4.72;1.67;;;;;;;23.43;46.45;101199.94;5080552;28;20040;-73
2022/10/06 10:47:44;;;;;;;3.72;1.50;;;;;;;23.50;45.61;101132.84;5084953;28;20074;-76
2022/10/06 10:50:25;;;;;;;3.17;1.40;;;;;;;23.85;44.51;101186.00;5077372;28;20032;-77
2022/10/06 10:52:56;;;;;;;4.28;1.55;;;;;;;24.20;43.39;101116.19;5076581;28;20029;-77
2022/10/06 10:55:29;;;;;;;2.15;1.58;;;;;;;24.47;43.50;101179.34;5094645;28;20032;-77
2022/10/06 10:58:16;;;;;;;4.15;1.65;;;;;;;24.42;45.17;101178.84;5093300;28;20036;-77
2022/10/06 11:00:48;;;;;;;2.35;1.52;;;;;;;23.59;42.84;101130.50;5092557;28;20088;-78
2022/10/06 11:03:14;;;;;;;4.10;1.50;;;;;;;23.72;43.06;101118.41;5092641;28;20024;-75
2022/10/06 11:06:01;;;;;;;3.03;1.40;;;;;;;24.54;42.32;101168.44;5093564;28;20101;-76
2022/10/06 11:08:42;;;;;;;2.35;1.70;;;;;;;24.56;42.41;101163.16;5093595;28;20063;-75
2022/10/06 11:11:19;;;;;;;2.72;1.40;;;;;;;23.40;42.60;101161.16;5093687;28;20136;-77
2022/10/06 11:13:53;;;;;;;3.42;1.35;;;;;;;24.29;43.47;101158.00;5092919;28;20123;-76
2022/10/06 11:16:43;;;;;;;2.47;1.40;;;;;;;24.72;42.81;101154.22;5093707;28;20035;-74
2022/10/06 11:19:17;;;;;;;5.80;1.55;;;;;;;24.81;42.91;101155.38;5093018;28;20037;-76
2022/10/06 11:21:58;;;;;;;4.97;1.60;;;;;;;24.21;42.62;101147.28;5093292;28;20061;-76
2022/10/06 11:24:30;;;;;;;3.70;1.67;;;;;;;23.61;43.13;101152.03;5093280;28;20043;-75
2022/10/06 11:27:13;;;;;;;3.58;1.55;;;;;;;23.98;42.52;101146.16;5093195;28;20028;-76
2022/10/06 11:29:57;;;;;;;2.92;1.70;;;;;;;24.29;43.40;101142.41;5093329;28;20032;-77
2022/10/06 11:32:31;;;;;;;3.63;1.60;;;;;;;25.08;41.21;101137.88;5093266;28;20028;-78
2022/10/06 11:34:58;;;;;;;5.65;1.48;;;;;;;24.29;42.82;101141.56;5093185;28;20058;-78
2022/10/06 11:37:48;;;;;;;5.20;1.50;;;;;;;24.34;41.80;101144.72;5092808;28;20020;-76
2022/10/06 11:40:25;;;;;;;4.60;1.85;;;;;;;23.95;42.51;101146.34;5093201;28;20060;-75
2022/10/06 11:43:25;;;;;;;5.53;2.05;;;;;;;24.44;42.47;101136.22;5093372;28;20036;-76
2022/10/06 11:46:14;;;;;;;4.20;2.17;;;;;;;23.39;42.67;101143.09;5049728;28;20036;-76